Time;durP1;ratioP1;P1;durP2;ratioP2;P2;SDS_P1;SDS_P2;PMS_P1;PMS_P2;Temp;Humidity;BMP_temperature;BMP_pressure;BME280_temperature;BME280_humidity;BME280_pressure;Samples;Min_cycle;Max_cycle;Signal;HPM_P1;HPM_P2
2023/09/30 00:02:11;;;;;;;11.48;7.47;;;;;;;18.96;85.38;101368.00;4808527;29;20046;-65
2023/09/30 00:04:39;;;;;;;13.50;7.90;;;;;;;18.87;84.88;101379.06;4803827;29;20080;-65
2023/09/30 00:07:07;;;;;;;10.95;7.85;;;;;;;18.88;84.33;101380.69;4809667;29;20061;-65
2023/09/30 00:09:35;;;;;;;12.38;7.43;;;;;;;18.82;84.75;101379.19;4822174;29;20062;-65
2023/09/30 00:12:04;;;;;;;10.65;7.25;;;;;;;18.73;85.48;101368.84;4824419;29;20054;-65
2023/09/30 00:14:32;;;;;;;9.38;7.07;;;;;;;18.73;85.46;101368.03;4825065;29;20055;-66
2023/09/30 00:17:00;;;;;;;11.10;8.00;;;;;;;18.65;86.45;101358.53;4825592;29;20413;-66
2023/09/30 00:19:28;;;;;;;9.07;7.40;;;;;;;18.69;85.87;101354.00;4825657;29;20054;-66
2023/09/30 00:21:56;;;;;;;10.60;7.15;;;;;;;18.73;85.96;101354.19;4825533;29;20417;-65
2023/09/30 00:24:25;;;;;;;9.63;7.30;;;;;;;18.71;86.34;101357.25;4824805;29;20502;-66
2023/09/30 00:26:53;;;;;;;10.85;7.53;;;;;;;18.73;85.90;101354.97;4824994;29;20053;-65
2023/09/30 00:29:21;;;;;;;10.93;7.88;;;;;;;18.71;85.60;101350.91;4825340;29;20520;-65
2023/09/30 00:31:52;;;;;;;10.45;7.80;;;;;;;18.76;85.65;101347.97;4824828;29;20081;-65
2023/09/30 00:34:20;;;;;;;13.40;8.40;;;;;;;18.69;87.27;101348.44;4824826;29;20065;-65
2023/09/30 00:36:48;;;;;;;9.55;7.28;;;;;;;18.80;85.71;101354.53;4824959;29;20054;-65
2023/09/30 00:39:16;;;;;;;10.90;7.43;;;;;;;18.72;86.21;101353.34;4807316;29;20055;-65
2023/09/30 00:41:44;;;;;;;11.98;8.10;;;;;;;18.85;84.89;101359.94;4807582;29;20415;-65
2023/09/30 00:44:12;;;;;;;12.90;8.20;;;;;;;18.74;85.94;101353.88;4823901;29;20097;-65
2023/09/30 00:46:41;;;;;;;11.27;7.72;;;;;;;18.73;86.01;101354.19;4808527;29;20490;-65
2023/09/30 00:49:10;;;;;;;9.68;7.68;;;;;;;18.62;86.92;101361.94;4824833;29;20059;-65
2023/09/30 00:51:38;;;;;;;10.32;7.63;;;;;;;18.51;86.78;101364.97;4825127;29;20057;-65
2023/09/30 00:54:08;;;;;;;11.68;7.57;;;;;;;18.45;86.53;101357.09;4824939;29;20058;-65
2023/09/30 00:56:43;;;;;;;8.02;7.15;;;;;;;18.42;86.57;101355.75;4808348;29;20065;-65
2023/09/30 00:59:16;;;;;;;11.23;7.03;;;;;;;18.41;87.34;101362.44;4824363;29;20047;-65
2023/09/30 01:01:46;;;;;;;9.68;7.78;;;;;;;18.35;87.50;101366.47;4825115;29;20062;-65
2023/09/30 01:04:15;;;;;;;9.27;6.78;;;;;;;18.33;87.70;101368.75;4824742;29;20058;-65
2023/09/30 01:06:43;;;;;;;11.70;7.47;;;;;;;18.29;88.40;101368.56;4825101;29;20050;-65
2023/09/30 01:09:12;;;;;;;12.32;7.40;;;;;;;18.30;88.20;101366.59;4824842;29;20051;-65
2023/09/30 01:11:40;;;;;;;12.45;7.72;;;;;;;18.29;88.51;101367.72;4824610;29;20506;-65
2023/09/30 01:14:28;;;;;;;11.10;7.50;;;;;;;18.31;88.45;101368.22;4807727;29;20050;-65
2023/09/30 01:16:56;;;;;;;12.25;7.68;;;;;;;18.38;87.70;101372.19;4824618;29;20603;-65
2023/09/30 01:19:25;;;;;;;13.35;8.18;;;;;;;18.41;87.35;101373.53;4808496;29;20046;-65
2023/09/30 01:22:00;;;;;;;12.57;8.23;;;;;;;18.38;88.53;101366.66;4824677;29;20070;-65
2023/09/30 01:24:29;;;;;;;13.60;8.90;;;;;;;18.33;87.72;101368.75;4824768;29;20509;-65
2023/09/30 01:26:57;;;;;;;12.13;8.13;;;;;;;18.35;88.51;101369.25;4823607;29;20098;-65
2023/09/30 01:29:27;;;;;;;13.18;7.93;;;;;;;18.26;88.53;101361.69;4806438;29;20059;-66
2023/09/30 01:31:55;;;;;;;12.25;8.43;;;;;;;18.22;89.66;101363.44;4790074;29;20057;-65
2023/09/30 01:34:23;;;;;;;11.70;8.30;;;;;;;18.21;88.23;101355.44;4806696;29;20062;-65
2023/09/30 01:36:51;;;;;;;13.15;8.65;;;;;;;18.07;89.39;101349.94;4819168;29;20066;-65
2023/09/30 01:39:19;;;;;;;14.68;8.00;;;;;;;18.02;89.98;101347.28;4807624;29;20429;-65
2023/09/30 01:41:47;;;;;;;9.15;7.75;;;;;;;18.01;89.74;101338.13;4807610;29;20062;-65
2023/09/30 01:44:15;;;;;;;12.07;7.53;;;;;;;18.01;90.12;101343.66;4823788;29;20073;-65
2023/09/30 01:46:43;;;;;;;12.90;7.80;;;;;;;18.08;89.57;101344.09;4807524;29;20065;-65
2023/09/30 01:49:11;;;;;;;11.68;7.72;;;;;;;18.09;89.71;101350.47;4823792;29;20055;-65
2023/09/30 01:51:39;;;;;;;10.23;7.60;;;;;;;18.10;88.93;101352.09;4823818;29;20619;-65
2023/09/30 01:54:07;;;;;;;10.07;7.25;;;;;;;18.10;89.95;101349.31;4807605;29;20259;-65
2023/09/30 01:56:35;;;;;;;10.65;7.95;;;;;;;18.07;89.91;101352.69;4807814;29;20058;-65
2023/09/30 01:59:03;;;;;;;13.65;8.45;;;;;;;18.05;90.90;101347.47;4824178;29;20058;-66
2023/09/30 02:01:31;;;;;;;12.50;7.82;;;;;;;18.03;91.70;101349.72;4808177;29;20081;-66
2023/09/30 02:03:59;;;;;;;11.35;8.07;;;;;;;18.00;91.39;101340.06;4823107;29;20062;-65
2023/09/30 02:06:28;;;;;;;11.52;8.13;;;;;;;17.99;91.33;101343.97;4823309;29;20058;-65
2023/09/30 02:08:56;;;;;;;8.85;7.78;;;;;;;18.03;91.02;101351.69;4823913;29;20410;-65
2023/09/30 02:11:24;;;;;;;12.98;8.13;;;;;;;18.05;90.61;101350.22;4823465;29;20062;-65
2023/09/30 02:13:52;;;;;;;11.50;8.00;;;;;;;18.08;90.11;101349.63;4823729;29;20054;-65
2023/09/30 02:16:20;;;;;;;10.05;7.55;;;;;;;17.98;90.43;101339.56;4807190;29;20486;-65
2023/09/30 02:18:50;;;;;;;10.88;7.50;;;;;;;18.02;89.61;101341.75;4823554;29;20783;-65
2023/09/30 02:21:18;;;;;;;10.73;7.55;;;;;;;17.98;90.21;101336.81;4807235;29;20050;-65
2023/09/30 02:23:47;;;;;;;11.88;7.80;;;;;;;18.02;89.31;101341.75;4823660;29;20055;-65
2023/09/30 02:26:15;;;;;;;12.40;7.75;;;;;;;18.06;89.22;101338.06;4834918;29;20056;-65
2023/09/30 02:28:43;;;;;;;11.13;7.55;;;;;;;18.07;89.91;101344.38;4841391;29;20058;-65
2023/09/30 02:31:13;;;;;;;11.88;7.82;;;;;;;18.11;89.53;101329.63;4825817;29;20050;-65
2023/09/30 02:33:41;;;;;;;10.43;8.00;;;;;;;18.07;89.85;101342.47;4841162;29;20058;-65
2023/09/30 02:36:09;;;;;;;12.05;7.97;;;;;;;18.00;90.37;101337.31;4841007;29;20060;-65
2023/09/30 02:38:37;;;;;;;13.65;8.35;;;;;;;17.94;90.72;101346.06;4825103;29;20061;-65
2023/09/30 02:41:05;;;;;;;9.07;7.22;;;;;;;17.91;90.60;101341.97;4842108;29;20045;-65
2023/09/30 02:43:33;;;;;;;11.35;7.05;;;;;;;17.92;89.58;101326.16;4812611;29;20062;-65
2023/09/30 02:46:01;;;;;;;11.23;7.95;;;;;;;17.88;90.77;101342.56;4812515;29;20058;-65
2023/09/30 02:48:29;;;;;;;10.68;7.65;;;;;;;17.88;89.73;101336.22;4821364;29;20065;-65
2023/09/30 02:50:57;;;;;;;9.85;7.57;;;;;;;17.89;90.52;101333.13;4795713;29;20078;-65
2023/09/30 02:53:25;;;;;;;10.65;7.75;;;;;;;17.82;91.95;101327.19;4790408;29;20043;-65
2023/09/30 02:55:56;;;;;;;10.02;6.97;;;;;;;17.85;90.89;101332.13;4822993;29;20062;-65
2023/09/30 02:58:24;;;;;;;11.77;7.68;;;;;;;17.92;89.30;101342.75;4823798;29;20081;-65
2023/09/30 03:00:53;;;;;;;8.93;6.93;;;;;;;17.89;90.72;101338.66;4823120;29;20537;-65
2023/09/30 03:03:22;;;;;;;9.57;6.68;;;;;;;17.90;89.94;101336.72;4823016;29;20525;-65
2023/09/30 03:05:50;;;;;;;9.23;7.05;;;;;;;17.88;89.91;101331.50;4822587;29;20062;-66
2023/09/30 03:08:18;;;;;;;12.73;7.72;;;;;;;17.84;90.24;101327.72;4806246;29;20557;-65
2023/09/30 03:10:46;;;;;;;11.95;6.50;;;;;;;17.78;89.93;101315.94;4823033;29;20512;-65
2023/09/30 03:13:14;;;;;;;11.75;7.55;;;;;;;17.78;90.21;101317.91;4823127;29;20042;-66
2023/09/30 03:15:41;;;;;;;9.43;7.30;;;;;;;17.75;90.53;101316.56;4823497;29;20057;-66
2023/09/30 03:18:10;;;;;;;10.35;7.30;;;;;;;17.75;92.39;101324.03;4822923;29;20343;-65
2023/09/30 03:20:39;;;;;;;8.77;6.88;;;;;;;17.77;91.19;101324.53;4822981;29;20055;-66
2023/09/30 03:23:08;;;;;;;9.27;7.50;;;;;;;17.70;92.59;101316.69;4822615;29;20050;-65
2023/09/30 03:25:36;;;;;;;9.88;6.88;;;;;;;17.69;91.04;101326.13;4822446;29;20046;-65
2023/09/30 03:28:06;;;;;;;10.05;7.43;;;;;;;17.71;91.00;101316.34;4822415;29;20054;-65
2023/09/30 03:30:34;;;;;;;10.18;7.20;;;;;;;17.78;90.47;101315.13;4822005;29;20054;-65
2023/09/30 03:33:04;;;;;;;10.20;7.22;;;;;;;17.83;89.95;101307.53;4822948;29;20061;-65
2023/09/30 03:35:32;;;;;;;9.63;6.90;;;;;;;17.79;90.48;101314.81;4804957;29;20074;-66
2023/09/30 03:38:02;;;;;;;9.30;6.75;;;;;;;17.69;91.40;101324.16;4804637;29;20066;-66
2023/09/30 03:40:33;;;;;;;12.02;7.68;;;;;;;17.64;91.57;101315.97;4804434;29;20051;-66
2023/09/30 03:43:01;;;;;;;9.75;7.13;;;;;;;17.61;91.93;101316.59;4804140;29;20059;-66
2023/09/30 03:45:29;;;;;;;9.80;6.95;;;;;;;17.57;92.30;101318.34;4823308;29;20061;-66
2023/09/30 03:47:57;;;;;;;11.82;7.45;;;;;;;17.51;92.57;101309.34;4826589;29;20050;-66
2023/09/30 03:50:26;;;;;;;8.02;6.68;;;;;;;17.54;93.18;101317.00;4825626;29;20517;-66
2023/09/30 03:53:02;;;;;;;10.98;7.80;;;;;;;17.53;93.23;101314.53;4825943;29;20054;-66
2023/09/30 03:55:30;;;;;;;10.25;7.43;;;;;;;17.46;93.64;101313.00;4825332;29;20062;-66
2023/09/30 03:57:58;;;;;;;11.20;7.68;;;;;;;17.51;93.82;101312.09;4825896;29;20051;-66
2023/09/30 04:00:26;;;;;;;10.15;7.75;;;;;;;17.52;93.84;101312.91;4825666;29;20054;-66
2023/09/30 04:02:58;;;;;;;11.15;8.13;;;;;;;17.44;95.23;101318.03;4826126;29;20047;-66
2023/09/30 04:05:29;;;;;;;23.23;8.02;;;;;;;17.43;94.31;101305.34;4825577;29;20062;-66
2023/09/30 04:07:57;;;;;;;11.30;8.32;;;;;;;17.39;95.57;101307.09;4825453;29;20066;-66
2023/09/30 04:10:25;;;;;;;9.38;7.28;;;;;;;17.30;94.94;101304.22;4826095;29;20063;-66
2023/09/30 04:12:54;;;;;;;10.07;7.68;;;;;;;17.30;95.39;101312.53;4825910;29;20065;-66
2023/09/30 04:15:22;;;;;;;9.52;7.82;;;;;;;17.37;94.48;101309.34;4825423;29;20075;-66
2023/09/30 04:17:51;;;;;;;11.50;7.90;;;;;;;17.39;94.57;101304.31;4825505;29;20069;-66
2023/09/30 04:20:23;;;;;;;8.98;7.30;;;;;;;17.37;95.16;101298.28;4825430;29;20054;-66
2023/09/30 04:22:55;;;;;;;10.35;7.60;;;;;;;17.41;94.59;101295.72;4825247;29;20069;-66
2023/09/30 04:25:27;;;;;;;12.27;8.00;;;;;;;17.47;94.64;101300.00;4825006;29;20387;-66
2023/09/30 04:27:55;;;;;;;10.80;8.23;;;;;;;17.51;93.50;101300.22;4825316;29;20062;-66
2023/09/30 04:30:23;;;;;;;10.55;7.30;;;;;;;17.45;94.28;101305.84;4824677;29;20071;-66
2023/09/30 04:32:51;;;;;;;10.45;8.27;;;;;;;17.45;95.75;101316.91;4825239;29;20494;-66
2023/09/30 04:35:22;;;;;;;10.85;7.97;;;;;;;17.42;94.91;101306.47;4836070;29;20050;-65
2023/09/30 04:37:51;;;;;;;12.95;8.07;;;;;;;17.43;94.12;101305.34;4844030;29;20192;-66
2023/09/30 04:40:21;;;;;;;10.80;7.65;;;;;;;17.37;94.80;101311.28;4843111;29;20065;-65
2023/09/30 04:42:50;;;;;;;13.02;8.40;;;;;;;17.32;96.54;101306.69;4830688;29;20061;-66
2023/09/30 04:45:20;;;;;;;12.55;7.75;;;;;;;17.27;96.61;101315.09;4824629;29;20085;-66
2023/09/30 04:47:49;;;;;;;10.65;8.35;;;;;;;17.26;95.85;101310.69;4825061;29;20069;-65
2023/09/30 04:50:17;;;;;;;11.07;8.30;;;;;;;17.29;95.67;101312.81;4824807;29;20050;-66
2023/09/30 04:52:47;;;;;;;11.50;8.02;;;;;;;17.30;95.45;101311.72;4829217;29;20498;-65
2023/09/30 04:55:18;;;;;;;9.45;7.70;;;;;;;17.22;96.75;101309.66;4843760;29;20046;-65
2023/09/30 04:57:47;;;;;;;13.02;8.23;;;;;;;17.18;96.23;101321.34;4842598;29;20050;-66
2023/09/30 05:00:18;;;;;;;10.10;7.32;;;;;;;17.17;95.80;101319.69;4843289;29;20054;-65
2023/09/30 05:02:47;;;;;;;12.73;8.30;;;;;;;17.21;96.30;101314.38;4843249;29;20061;-65
2023/09/30 05:05:15;;;;;;;12.00;8.40;;;;;;;17.14;97.01;101325.00;4842971;29;20707;-65
2023/09/30 05:07:46;;;;;;;12.73;8.55;;;;;;;17.08;98.96;101318.78;4833547;29;20051;-64
2023/09/30 05:10:16;;;;;;;12.68;8.23;;;;;;;17.06;97.41;101318.28;4831641;29;20043;-65
2023/09/30 05:12:46;;;;;;;12.07;8.00;;;;;;;17.02;98.47;101326.31;4825118;29;20407;-66
2023/09/30 05:15:16;;;;;;;12.60;8.38;;;;;;;17.05;97.74;101317.44;4827413;29;20062;-65
2023/09/30 05:17:45;;;;;;;14.63;8.88;;;;;;;17.09;97.53;101322.34;4828824;29;20520;-66
2023/09/30 05:20:17;;;;;;;13.85;8.38;;;;;;;17.15;97.39;101332.19;4832408;29;20057;-66
2023/09/30 05:22:46;;;;;;;10.82;8.63;;;;;;;17.24;96.70;101329.50;4824104;29;20069;-66
2023/09/30 05:25:18;;;;;;;11.13;8.38;;;;;;;17.19;97.42;101331.28;4824149;29;20054;-66
2023/09/30 05:27:49;;;;;;;10.63;8.15;;;;;;;17.22;97.24;101334.53;4823186;29;20062;-66
2023/09/30 05:30:19;;;;;;;12.77;8.77;;;;;;;17.23;97.35;101345.31;4824145;29;20055;-66
2023/09/30 05:32:47;;;;;;;10.50;8.60;;;;;;;17.26;97.19;101341.91;4824774;29;20148;-66
2023/09/30 05:35:16;;;;;;;12.55;9.05;;;;;;;17.30;97.54;101345.72;4824397;29;20054;-66
2023/09/30 05:37:45;;;;;;;13.20;8.10;;;;;;;17.36;97.53;101353.91;4824021;29;20054;-75
2023/09/30 05:40:21;;;;;;;11.70;8.57;;;;;;;17.95;95.77;101356.81;4778887;29;20061;-75
2023/09/30 05:42:58;;;;;;;11.75;8.52;;;;;;;18.55;91.81;101359.59;4776199;29;20597;-75
2023/09/30 05:45:28;;;;;;;13.63;9.23;;;;;;;18.96;88.40;101373.56;4806579;29;20062;-75
2023/09/30 05:47:57;;;;;;;12.85;8.10;;;;;;;19.24;86.36;101367.81;4801526;29;20061;-75
2023/09/30 05:50:26;;;;;;;14.20;8.50;;;;;;;19.45;85.05;101380.00;4796177;29;20413;-75
2023/09/30 05:52:55;;;;;;;11.02;8.30;;;;;;;19.51;84.03;101383.47;4779614;29;20054;-74
2023/09/30 05:55:25;;;;;;;11.48;7.93;;;;;;;19.68;83.60;101382.69;4778140;29;20065;-74
2023/09/30 05:57:54;;;;;;;12.10;8.43;;;;;;;19.54;82.73;101387.53;4775467;29;20081;-74
2023/09/30 06:00:29;;;;;;;13.05;7.85;;;;;;;19.71;83.00;101389.53;4775161;29;20055;-75
2023/09/30 06:02:58;;;;;;;11.80;8.30;;;;;;;19.77;82.03;101399.38;4760440;29;20062;-75
2023/09/30 06:05:29;;;;;;;11.48;8.23;;;;;;;19.93;81.92;101396.09;4761885;29;20051;-74
2023/09/30 06:08:02;;;;;;;13.00;8.15;;;;;;;20.06;80.96;101397.16;4790836;29;20414;-75
2023/09/30 06:10:31;;;;;;;13.23;8.10;;;;;;;20.16;80.66;101413.50;4792084;29;20870;-74
2023/09/30 06:13:00;;;;;;;10.63;8.05;;;;;;;20.24;80.35;101386.88;4795301;29;20060;-74
2023/09/30 06:15:28;;;;;;;10.20;7.80;;;;;;;20.32;80.00;101399.94;4795416;29;20053;-74
2023/09/30 06:17:57;;;;;;;11.25;7.82;;;;;;;20.42;79.24;101393.22;4791065;29;20061;-74
2023/09/30 06:20:26;;;;;;;10.50;7.65;;;;;;;20.49;78.44;101395.53;4776387;29;20059;-74
2023/09/30 06:22:58;;;;;;;12.32;7.40;;;;;;;20.56;77.91;101384.72;4806913;29;20038;-76
2023/09/30 06:25:27;;;;;;;13.75;7.47;;;;;;;20.51;77.70;101379.31;4775042;29;20142;-75
2023/09/30 06:27:56;;;;;;;9.15;7.47;;;;;;;20.51;76.75;101373.78;4776394;29;20069;-75
2023/09/30 06:30:29;;;;;;;11.35;7.88;;;;;;;20.62;76.68;101363.94;4777901;29;20065;-74
2023/09/30 06:33:00;;;;;;;11.90;7.10;;;;;;;20.70;76.03;101364.25;4778120;29;20061;-75
2023/09/30 06:35:37;;;;;;;13.25;8.30;;;;;;;20.71;74.40;101365.91;4788879;29;20395;-75
2023/09/30 06:38:06;;;;;;;10.35;7.13;;;;;;;20.60;75.53;101371.81;4770010;29;20505;-75
2023/09/30 06:40:35;;;;;;;9.77;7.65;;;;;;;20.86;73.66;101370.94;4774508;29;20399;-75
2023/09/30 06:43:08;;;;;;;10.85;7.20;;;;;;;20.96;72.74;101382.88;4774069;29;20060;-75
2023/09/30 06:45:41;;;;;;;9.32;6.50;;;;;;;21.00;70.39;101383.84;4791087;29;20057;-75
2023/09/30 06:48:14;;;;;;;9.95;6.05;;;;;;;21.01;68.23;101386.28;4791014;29;20410;-75
2023/09/30 06:50:45;;;;;;;8.27;6.43;;;;;;;21.03;68.67;101374.84;4785240;29;20050;-74
2023/09/30 06:53:18;;;;;;;11.30;6.57;;;;;;;21.17;68.53;101386.56;4799010;29;20085;-74
2023/09/30 06:55:46;;;;;;;7.72;6.25;;;;;;;21.25;67.43;101384.09;4789317;29;20051;-74
2023/09/30 06:58:18;;;;;;;9.70;6.10;;;;;;;21.33;67.18;101374.88;4790035;29;20066;-74
2023/09/30 07:00:51;;;;;;;10.02;6.57;;;;;;;21.35;67.05;101373.41;4790427;29;20050;-75
2023/09/30 07:03:19;;;;;;;8.18;5.93;;;;;;;21.43;66.25;101371.72;4794997;29;20058;-74
2023/09/30 07:05:53;;;;;;;8.88;5.72;;;;;;;21.48;63.76;101377.13;4788534;29;20496;-75
2023/09/30 07:08:21;;;;;;;10.77;6.18;;;;;;;21.41;64.42;101379.59;4783573;29;20055;-75
2023/09/30 07:10:49;;;;;;;10.00;6.15;;;;;;;21.52;64.55;101387.56;4790486;29;20050;-75
2023/09/30 07:13:17;;;;;;;7.20;6.05;;;;;;;21.56;62.74;101396.88;4776008;29;20065;-75
2023/09/30 07:15:46;;;;;;;11.13;6.50;;;;;;;21.60;63.60;101400.63;4776107;29;20682;-76
2023/09/30 07:18:14;;;;;;;11.70;7.00;;;;;;;21.62;62.74;101401.13;4791057;29;20050;-75
2023/09/30 07:20:42;;;;;;;12.55;7.18;;;;;;;21.78;63.24;101406.94;4790580;29;20050;-74
2023/09/30 07:23:13;;;;;;;10.50;6.65;;;;;;;21.83;63.28;101422.63;4797010;29;20049;-74
2023/09/30 07:25:47;;;;;;;8.32;6.20;;;;;;;21.86;63.81;101430.34;4792605;29;20050;-75
2023/09/30 07:28:15;;;;;;;15.45;7.07;;;;;;;21.92;62.94;101423.41;4793171;29;20061;-75
2023/09/30 07:30:44;;;;;;;8.63;6.90;;;;;;;21.96;61.73;101429.97;4788506;29;20082;-74
2023/09/30 07:33:12;;;;;;;13.35;6.63;;;;;;;21.97;62.37;101431.59;4773246;29;20043;-74
2023/09/30 07:35:41;;;;;;;10.25;6.85;;;;;;;22.01;60.87;101437.28;4776882;29;20058;-74
2023/09/30 07:38:09;;;;;;;10.30;6.65;;;;;;;22.13;60.94;101436.53;4794531;29;20473;-74
2023/09/30 07:40:37;;;;;;;7.75;5.57;;;;;;;22.04;58.15;101438.59;4824590;29;20050;-74
2023/09/30 07:43:05;;;;;;;9.93;6.43;;;;;;;22.07;59.78;101441.50;4794781;29;20054;-75
2023/09/30 07:45:33;;;;;;;9.27;5.57;;;;;;;22.27;60.11;101439.06;4809442;29;20050;-75
2023/09/30 07:48:05;;;;;;;9.20;5.30;;;;;;;22.36;58.29;101453.78;4773764;29;20501;-75
2023/09/30 07:50:34;;;;;;;6.70;5.90;;;;;;;22.40;58.99;101448.34;4817495;29;20046;-75
2023/09/30 07:53:02;;;;;;;7.07;5.22;;;;;;;22.51;57.54;101448.72;4819024;29;20442;-75
2023/09/30 07:55:30;;;;;;;10.57;5.93;;;;;;;22.42;58.21;101446.00;4817738;29;20042;-75
2023/09/30 07:57:59;;;;;;;9.35;5.32;;;;;;;22.60;58.62;101452.31;4818324;29;20061;-75
2023/09/30 08:00:27;;;;;;;10.07;5.82;;;;;;;22.65;57.70;101448.47;4818477;29;20047;-75
2023/09/30 08:02:55;;;;;;;11.05;5.95;;;;;;;22.74;58.16;101449.22;4803237;29;20532;-75
2023/09/30 08:05:23;;;;;;;10.32;5.50;;;;;;;22.80;58.65;101445.06;4821430;29;20062;-75
2023/09/30 08:07:51;;;;;;;8.52;6.28;;;;;;;22.78;57.70;101441.78;4819027;29;20050;-75
2023/09/30 08:10:19;;;;;;;10.65;6.35;;;;;;;22.92;59.20;101451.84;4816677;29;20081;-74
2023/09/30 08:12:49;;;;;;;8.32;5.88;;;;;;;23.07;57.45;101456.75;4818921;29;20096;-74
2023/09/30 08:15:17;;;;;;;14.32;6.07;;;;;;;23.01;56.84;101449.75;4819376;29;20065;-74
2023/09/30 08:17:45;;;;;;;10.95;6.22;;;;;;;23.09;57.63;101446.09;4803116;29;20054;-74
2023/09/30 08:20:13;;;;;;;9.02;5.65;;;;;;;23.06;57.06;101446.75;4819644;29;20055;-74
2023/09/30 08:22:41;;;;;;;8.75;5.80;;;;;;;23.13;57.09;101446.22;4819343;29;20047;-74
2023/09/30 08:25:10;;;;;;;10.07;5.45;;;;;;;23.28;55.93;101455.88;4819937;29;20057;-74
2023/09/30 08:27:38;;;;;;;7.90;5.78;;;;;;;23.25;53.80;101455.78;4818458;29;20526;-74
2023/09/30 08:30:11;;;;;;;7.75;5.15;;;;;;;23.42;55.67;101457.56;4801717;29;20058;-75
2023/09/30 08:32:39;;;;;;;9.60;6.10;;;;;;;23.40;56.53;101457.09;4819040;29;20058;-75
2023/09/30 08:35:08;;;;;;;7.47;5.72;;;;;;;23.45;55.33;101459.66;4821873;29;20046;-74
2023/09/30 08:37:36;;;;;;;5.82;5.10;;;;;;;23.53;55.02;101464.31;4821802;29;20054;-75
2023/09/30 08:40:04;;;;;;;8.93;6.10;;;;;;;23.59;55.33;101456.53;4821736;29;20410;-74
2023/09/30 08:42:33;;;;;;;12.07;6.38;;;;;;;23.58;54.94;101457.69;4821770;29;20059;-75
2023/09/30 08:45:07;;;;;;;9.38;5.97;;;;;;;23.74;54.31;101453.03;4822009;29;20191;-75
2023/09/30 08:47:36;;;;;;;11.05;6.15;;;;;;;23.83;55.05;101455.72;4822424;29;20066;-74
2023/09/30 08:50:08;;;;;;;9.43;6.18;;;;;;;23.88;54.66;101447.09;4822116;29;20047;-74
2023/09/30 08:52:38;;;;;;;9.43;6.28;;;;;;;23.92;54.82;101446.38;4820920;29;20400;-75
2023/09/30 08:55:08;;;;;;;8.68;6.72;;;;;;;24.05;54.98;101442.38;4819006;29;20058;-75
2023/09/30 08:57:41;;;;;;;11.48;6.65;;;;;;;24.16;54.90;101451.97;4819507;29;20076;-75
2023/09/30 09:00:13;;;;;;;9.05;6.60;;;;;;;24.18;54.58;101442.44;4821594;29;20516;-75
2023/09/30 09:02:42;;;;;;;16.63;6.95;;;;;;;24.28;54.63;101436.31;4817991;29;20047;-76
2023/09/30 09:05:11;;;;;;;8.55;6.60;;;;;;;24.37;54.55;101444.56;4805545;29;20421;-76
2023/09/30 09:07:40;;;;;;;7.60;6.05;;;;;;;24.40;53.68;101450.25;4788962;29;20050;-75
2023/09/30 09:10:15;;;;;;;11.02;6.55;;;;;;;24.41;54.75;101451.09;4790326;29;20133;-76
2023/09/30 09:12:44;;;;;;;10.90;6.45;;;;;;;24.49;53.91;101454.91;4821886;29;20383;-76
2023/09/30 09:15:25;;;;;;;11.52;6.60;;;;;;;24.56;52.58;101457.91;4820877;29;20050;-76
2023/09/30 09:17:54;;;;;;;8.70;6.20;;;;;;;24.64;52.62;101461.75;4776277;29;20755;-76
2023/09/30 09:20:25;;;;;;;8.68;6.15;;;;;;;24.64;52.40;101454.16;4774278;29;20081;-76
2023/09/30 09:22:55;;;;;;;10.65;6.50;;;;;;;24.60;53.81;101447.66;4775370;29;20401;-76
2023/09/30 09:25:24;;;;;;;12.02;7.22;;;;;;;24.75;53.50;101434.06;4789170;29;20050;-76
2023/09/30 09:27:53;;;;;;;6.50;5.22;;;;;;;24.87;53.34;101442.41;4775298;29;20054;-76
2023/09/30 09:30:27;;;;;;;8.23;6.25;;;;;;;24.94;52.98;101451.00;4819403;29;20146;-77
2023/09/30 09:33:03;;;;;;;9.55;6.32;;;;;;;25.09;53.58;101443.81;4771234;29;20055;-76
2023/09/30 09:35:35;;;;;;;10.20;6.15;;;;;;;25.03;53.58;101441.63;4775890;29;20066;-76
2023/09/30 09:38:07;;;;;;;10.43;6.45;;;;;;;25.15;55.46;101455.56;4787582;29;20080;-77
2023/09/30 09:40:38;;;;;;;12.77;6.68;;;;;;;25.23;53.68;101450.97;4787719;29;20524;-76
2023/09/30 09:43:06;;;;;;;10.20;6.65;;;;;;;25.26;53.01;101455.03;4804244;29;20537;-78
2023/09/30 09:45:40;;;;;;;10.02;6.07;;;;;;;25.26;52.75;101457.84;4818270;29;20058;-75
2023/09/30 09:48:09;;;;;;;;;;;;;;;25.18;53.01;101457.63;4818757;29;20054;-76
2023/09/30 09:50:38;;;;;;;8.38;6.10;;;;;;;25.08;53.71;101456.19;4805282;29;19932;-76
2023/09/30 09:53:08;;;;;;;12.60;6.70;;;;;;;25.16;52.87;101462.78;4819643;29;20489;-76
2023/09/30 09:55:38;;;;;;;11.52;6.38;;;;;;;25.42;52.68;101466.25;4821732;29;20054;-76
2023/09/30 09:58:10;;;;;;;9.83;6.90;;;;;;;25.44;51.96;101472.28;4821508;29;20050;-76
2023/09/30 10:00:39;;;;;;;9.75;6.38;;;;;;;25.50;52.04;101460.47;4820315;29;20427;-76
2023/09/30 10:03:07;;;;;;;10.95;7.22;;;;;;;25.49;52.08;101458.84;4818830;29;20054;-76
2023/09/30 10:05:39;;;;;;;10.25;6.90;;;;;;;25.69;51.72;101460.91;4816285;29;20062;-76
2023/09/30 10:08:14;;;;;;;10.10;7.00;;;;;;;25.95;52.21;101467.97;4817608;29;20057;-76
2023/09/30 10:10:44;;;;;;;8.40;6.88;;;;;;;25.99;51.17;101472.47;4819372;29;20070;-76
2023/09/30 10:13:51;;;;;;;11.15;7.15;;;;;;;26.19;51.78;101475.28;4788076;29;20502;-76
2023/09/30 10:16:38;;;;;;;10.38;6.50;;;;;;;26.23;51.87;101459.41;4804342;29;20058;-76
2023/09/30 10:19:25;;;;;;;11.77;6.75;;;;;;;26.19;52.41;101447.25;4820915;29;20413;-75
2023/09/30 10:22:27;;;;;;;9.88;6.35;;;;;;;26.09;51.81;101450.66;4803593;29;20065;-76
2023/09/30 10:24:59;;;;;;;9.80;6.68;;;;;;;26.14;51.26;101447.53;4818336;29;20413;-76
2023/09/30 10:27:31;;;;;;;10.85;6.75;;;;;;;26.24;50.77;101454.63;4820517;29;20054;-77
2023/09/30 10:30:10;;;;;;;8.90;6.30;;;;;;;26.13;50.06;101454.31;4776029;29;20379;-77
2023/09/30 10:32:50;;;;;;;8.40;5.90;;;;;;;26.13;50.35;101454.31;4773550;29;20502;-77
2023/09/30 10:35:19;;;;;;;14.48;7.63;;;;;;;26.01;51.06;101444.84;4774708;29;20054;-76
2023/09/30 10:37:48;;;;;;;10.10;6.60;;;;;;;26.14;50.82;101439.13;4774691;29;20061;-76
2023/09/30 10:40:30;;;;;;;9.25;6.70;;;;;;;26.40;51.00;101443.31;4787552;29;20062;-76
2023/09/30 10:43:02;;;;;;;12.63;6.40;;;;;;;26.62;49.78;101440.94;4773732;29;20081;-77
2023/09/30 10:45:39;;;;;;;14.48;7.47;;;;;;;26.77;49.17;101442.84;4787816;29;20073;-77
2023/09/30 10:48:26;;;;;;;12.48;6.45;;;;;;;26.88;48.98;101445.06;4789509;29;20073;-77
2023/09/30 10:50:56;;;;;;;12.38;7.68;;;;;;;26.75;48.34;101436.81;4803140;29;20054;-77
2023/09/30 10:53:25;;;;;;;13.77;7.18;;;;;;;26.70;49.11;101435.09;4801495;29;20069;-76
2023/09/30 10:55:58;;;;;;;8.93;6.38;;;;;;;26.65;49.51;101424.19;4818734;29;20133;-76
2023/09/30 10:58:40;;;;;;;11.20;6.22;;;;;;;26.98;48.65;101424.84;4803893;29;20406;-77
2023/09/30 11:01:10;;;;;;;10.52;6.70;;;;;;;26.99;48.61;101423.63;4817512;29;20047;-76
2023/09/30 11:03:40;;;;;;;10.25;6.93;;;;;;;27.08;48.40;101412.94;4803561;29;20065;-76
2023/09/30 11:06:17;;;;;;;13.93;6.40;;;;;;;27.31;48.51;101417.75;4818472;29;20065;-78
2023/09/30 11:08:52;;;;;;;10.10;6.45;;;;;;;27.22;47.84;101398.34;4819485;29;20490;-76
2023/09/30 11:11:34;;;;;;;10.75;6.68;;;;;;;27.39;47.18;101407.47;4817155;29;20058;-76
2023/09/30 11:14:03;;;;;;;9.65;6.47;;;;;;;27.33;47.79;101409.75;4818644;29;20053;-76
2023/09/30 11:16:43;;;;;;;11.00;6.45;;;;;;;27.50;48.23;101402.00;4816969;29;20077;-76
2023/09/30 11:19:12;;;;;;;8.90;6.18;;;;;;;27.67;48.71;101388.63;4818062;29;20058;-76
2023/09/30 11:21:42;;;;;;;8.05;6.22;;;;;;;27.73;47.91;101381.47;4819380;29;20046;-76
2023/09/30 11:24:12;;;;;;;7.90;5.75;;;;;;;27.90;47.71;101369.69;4819611;29;20055;-76
2023/09/30 11:26:43;;;;;;;7.40;5.25;;;;;;;27.94;47.91;101371.75;4819005;29;20502;-76
2023/09/30 11:29:13;;;;;;;10.02;6.03;;;;;;;28.10;49.65;101382.78;4817946;29;20061;-75
2023/09/30 11:31:47;;;;;;;7.95;5.65;;;;;;;28.12;48.07;101383.22;4818707;29;20058;-75
2023/09/30 11:34:16;;;;;;;9.73;5.22;;;;;;;28.14;48.21;101378.00;4803057;29;20502;-76